Time;durP1;ratioP1;P1;durP2;ratioP2;P2;SDS_P1;SDS_P2;PMS_P1;PMS_P2;Temp;Humidity;BMP_temperature;BMP_pressure;BME280_temperature;BME280_humidity;BME280_pressure;Samples;Min_cycle;Max_cycle;Signal;HPM_P1;HPM_P2
2023/04/30 00:01:34;;;;;;;7.95;3.40;;;;;;;-145.41;100.00;58600.66;4984586;28;20035;-73
2023/04/30 00:03:59;;;;;;;8.45;3.08;;;;;;;-145.41;100.00;58600.66;4975054;28;20042;-73
2023/04/30 00:06:25;;;;;;;5.53;2.63;;;;;;;-145.41;100.00;58600.66;4967276;28;20498;-73
2023/04/30 00:08:50;;;;;;;5.22;2.78;;;;;;;-145.41;100.00;58600.66;4989219;28;20042;-73
2023/04/30 00:11:15;;;;;;;5.72;2.95;;;;;;;-145.41;100.00;58600.66;4983748;28;20030;-74
2023/04/30 00:13:41;;;;;;;7.32;3.00;;;;;;;-145.41;100.00;58600.66;4984548;28;20089;-74
2023/04/30 00:16:07;;;;;;;5.18;2.75;;;;;;;-145.41;100.00;58600.66;4983829;28;20038;-74
2023/04/30 00:18:32;;;;;;;7.40;2.92;;;;;;;-145.41;100.00;58600.66;4982284;28;20066;-73
2023/04/30 00:20:57;;;;;;;5.65;2.80;;;;;;;-145.41;100.00;58600.66;4974591;28;20070;-74
2023/04/30 00:23:23;;;;;;;6.47;3.03;;;;;;;-145.41;100.00;58600.66;4986054;28;20037;-74
2023/04/30 00:25:48;;;;;;;5.82;3.47;;;;;;;-145.41;100.00;58600.66;4973721;28;20051;-74
2023/04/30 00:28:13;;;;;;;5.93;3.42;;;;;;;-145.41;100.00;58600.66;4976004;28;20042;-73
2023/04/30 00:30:39;;;;;;;5.78;3.08;;;;;;;-145.41;100.00;58600.66;4982956;28;20054;-73
2023/04/30 00:33:04;;;;;;;5.13;3.03;;;;;;;-145.41;100.00;58600.66;4985924;28;20034;-73
2023/04/30 00:35:29;;;;;;;8.27;3.95;;;;;;;-145.41;100.00;58600.66;4985063;28;20073;-73
2023/04/30 00:37:55;;;;;;;6.70;3.80;;;;;;;-145.41;100.00;58600.66;4982758;28;20031;-73
2023/04/30 00:40:20;;;;;;;7.63;3.13;;;;;;;-145.41;100.00;58600.66;4975898;28;20476;-72
2023/04/30 00:42:47;;;;;;;8.18;3.78;;;;;;;-145.41;100.00;58600.66;4982764;28;20035;-73
2023/04/30 00:45:13;;;;;;;7.55;3.92;;;;;;;-145.41;100.00;58600.66;4967991;28;20121;-73
2023/04/30 00:47:39;;;;;;;9.35;3.28;;;;;;;-145.41;100.00;58600.66;4985658;28;20533;-73
2023/04/30 00:50:05;;;;;;;6.68;3.90;;;;;;;-145.41;100.00;58600.66;4981560;28;20041;-73
2023/04/30 00:52:31;;;;;;;7.88;4.53;;;;;;;-145.41;100.00;58600.66;4982335;28;20437;-73
2023/04/30 00:54:56;;;;;;;8.27;4.45;;;;;;;-145.41;100.00;58600.66;4969822;28;20042;-73
2023/04/30 00:57:22;;;;;;;9.32;3.85;;;;;;;-145.41;100.00;58600.66;4967844;28;20037;-74
2023/04/30 00:59:47;;;;;;;6.93;3.30;;;;;;;-145.41;100.00;58600.66;4964454;28;20026;-74
2023/04/30 01:02:13;;;;;;;7.68;3.97;;;;;;;-145.41;100.00;58600.66;4970739;28;20023;-73
2023/04/30 01:04:39;;;;;;;8.60;3.95;;;;;;;-145.41;100.00;58600.66;4984812;28;20042;-73
2023/04/30 01:07:05;;;;;;;7.45;3.88;;;;;;;-145.41;100.00;58600.66;4964674;28;20035;-74
2023/04/30 01:09:31;;;;;;;8.10;3.47;;;;;;;-145.41;100.00;58600.66;4984204;28;20038;-73
2023/04/30 01:12:12;;;;;;;8.05;3.65;;;;;;;-145.41;100.00;58600.66;4965075;28;20556;-74
2023/04/30 01:14:49;;;;;;;6.47;3.63;;;;;;;-145.41;100.00;58600.66;4982197;28;20126;-73
2023/04/30 01:17:30;;;;;;;7.15;3.70;;;;;;;-145.41;100.00;58600.66;4970250;28;20446;-73
2023/04/30 01:19:57;;;;;;;8.80;4.03;;;;;;;-145.41;100.00;58600.66;4984268;28;20031;-73
2023/04/30 01:22:26;;;;;;;6.75;3.90;;;;;;;-145.41;100.00;58600.66;4967401;28;20053;-73
2023/04/30 01:24:54;;;;;;;5.95;4.10;;;;;;;-145.41;100.00;58600.66;4967493;28;20049;-74
2023/04/30 01:27:30;;;;;;;8.60;3.78;;;;;;;-145.41;100.00;58600.66;4974803;28;20037;-74
2023/04/30 01:29:57;;;;;;;7.50;3.88;;;;;;;-145.41;100.00;58600.66;4965497;28;20034;-73
2023/04/30 01:32:23;;;;;;;7.70;4.32;;;;;;;-145.41;100.00;58600.66;4967502;28;20118;-74
2023/04/30 01:34:49;;;;;;;9.13;4.57;;;;;;;-145.41;100.00;58600.66;4972365;28;20066;-73
2023/04/30 01:37:30;;;;;;;9.43;4.85;;;;;;;-145.41;100.00;58600.66;4983440;28;20027;-73
2023/04/30 01:40:20;;;;;;;8.05;4.07;;;;;;;-145.41;100.00;58600.66;4981670;28;20123;-72
2023/04/30 01:43:00;;;;;;;5.95;4.03;;;;;;;-145.41;100.00;58600.66;4963996;28;20098;-73
2023/04/30 01:45:41;;;;;;;7.60;4.28;;;;;;;-145.41;100.00;58600.66;4956569;28;20061;-72
2023/04/30 01:48:18;;;;;;;6.35;4.28;;;;;;;-145.41;100.00;58600.66;4981679;28;20074;-73
2023/04/30 01:50:49;;;;;;;6.45;4.03;;;;;;;-145.41;100.00;58600.66;4973558;28;20043;-73
2023/04/30 01:53:31;;;;;;;7.78;4.65;;;;;;;-145.41;100.00;58600.66;4964096;28;20422;-73
2023/04/30 01:56:11;;;;;;;9.60;4.45;;;;;;;-145.41;100.00;58600.66;4954997;28;20055;-73
2023/04/30 01:58:37;;;;;;;8.05;4.80;;;;;;;-145.41;100.00;58600.66;4980950;28;20045;-73
2023/04/30 02:01:03;;;;;;;10.98;5.13;;;;;;;-145.41;100.00;58600.66;4966760;28;20041;-73
2023/04/30 02:03:28;;;;;;;6.38;4.20;;;;;;;-145.41;100.00;58600.66;4963366;28;20027;-72
2023/04/30 02:05:55;;;;;;;10.52;4.82;;;;;;;-145.41;100.00;58600.66;4974141;28;20115;-73
2023/04/30 02:08:21;;;;;;;6.55;4.53;;;;;;;-145.41;100.00;58600.66;4967006;28;20409;-73
2023/04/30 02:10:46;;;;;;;6.65;4.28;;;;;;;-145.41;100.00;58600.66;4983606;28;20564;-74
2023/04/30 02:13:11;;;;;;;7.85;4.20;;;;;;;-145.41;100.00;58600.66;4980923;28;20498;-73
2023/04/30 02:15:37;;;;;;;11.55;4.80;;;;;;;-145.41;100.00;58600.66;4974096;28;20128;-74
2023/04/30 02:18:02;;;;;;;6.55;4.18;;;;;;;-145.41;100.00;58600.66;4973778;28;20045;-73
2023/04/30 02:20:27;;;;;;;6.13;4.50;;;;;;;-145.41;100.00;58600.66;4961632;28;20058;-73
2023/04/30 02:22:53;;;;;;;6.97;4.30;;;;;;;-145.41;100.00;58600.66;4983487;28;20505;-73
2023/04/30 02:25:18;;;;;;;8.45;4.32;;;;;;;-145.41;100.00;58600.66;4981166;28;20552;-73
2023/04/30 02:27:44;;;;;;;9.55;4.40;;;;;;;-145.41;100.00;58600.66;4974231;28;20110;-74
2023/04/30 02:30:09;;;;;;;8.70;4.90;;;;;;;-145.41;100.00;58600.66;4987793;28;20042;-73
2023/04/30 02:32:34;;;;;;;7.15;4.65;;;;;;;-145.41;100.00;58600.66;4974016;28;20121;-73
2023/04/30 02:35:00;;;;;;;6.90;4.43;;;;;;;-145.41;100.00;58600.66;4967699;28;20058;-73
2023/04/30 02:37:25;;;;;;;8.73;4.97;;;;;;;-145.41;100.00;58600.66;4970363;28;20034;-73
2023/04/30 02:39:52;;;;;;;6.75;4.07;;;;;;;-145.41;100.00;58600.66;4989018;28;20432;-74
2023/04/30 02:42:17;;;;;;;6.80;4.78;;;;;;;-145.41;100.00;58600.66;4991623;28;20044;-73
2023/04/30 02:44:43;;;;;;;7.85;4.00;;;;;;;-145.41;100.00;58600.66;4988203;28;20041;-73
2023/04/30 02:47:08;;;;;;;9.73;4.65;;;;;;;-145.41;100.00;58600.66;4988519;28;20034;-73
2023/04/30 02:49:33;;;;;;;7.93;4.43;;;;;;;-145.41;100.00;58600.66;4974630;28;20444;-74
2023/04/30 02:51:59;;;;;;;9.88;4.95;;;;;;;-145.41;100.00;58600.66;4993251;28;20065;-73
2023/04/30 02:54:25;;;;;;;8.25;4.35;;;;;;;-145.41;100.00;58600.66;4978235;28;20043;-73
2023/04/30 02:56:50;;;;;;;7.22;4.40;;;;;;;-145.41;100.00;58600.66;4988215;28;20037;-74
2023/04/30 02:59:15;;;;;;;8.50;4.88;;;;;;;-145.41;100.00;58600.66;4979062;28;20027;-73
2023/04/30 03:01:41;;;;;;;7.95;4.10;;;;;;;-145.41;100.00;58600.66;4970414;28;20400;-74
2023/04/30 03:04:06;;;;;;;6.95;3.95;;;;;;;-145.41;100.00;58600.66;4992302;28;20034;-74
2023/04/30 03:06:32;;;;;;;7.95;4.65;;;;;;;-145.41;100.00;58600.66;4987711;28;20109;-74
2023/04/30 03:08:58;;;;;;;10.57;4.65;;;;;;;-145.41;100.00;58600.66;4970602;28;20129;-73
2023/04/30 03:11:23;;;;;;;8.90;4.40;;;;;;;-145.41;100.00;58600.66;4985683;28;20060;-73
2023/04/30 03:13:50;;;;;;;7.78;3.97;;;;;;;-145.41;100.00;58600.66;4978853;28;20046;-73
2023/04/30 03:16:16;;;;;;;6.38;4.22;;;;;;;-145.41;100.00;58600.66;4974461;28;20038;-73
2023/04/30 03:18:42;;;;;;;11.32;4.65;;;;;;;-145.41;100.00;58600.66;4968354;28;20781;-73
2023/04/30 03:21:07;;;;;;;8.43;4.32;;;;;;;-145.41;100.00;58600.66;4980463;28;20046;-73
2023/04/30 03:23:32;;;;;;;6.75;4.45;;;;;;;-145.41;100.00;58600.66;4959930;28;20033;-74
2023/04/30 03:25:58;;;;;;;5.78;3.80;;;;;;;-145.41;100.00;58600.66;4989346;28;20428;-74
2023/04/30 03:28:23;;;;;;;7.80;4.63;;;;;;;-145.41;100.00;58600.66;4989753;28;20511;-73
2023/04/30 03:30:49;;;;;;;6.47;4.03;;;;;;;-145.41;100.00;58600.66;4981134;28;20042;-74
2023/04/30 03:33:14;;;;;;;7.40;4.38;;;;;;;-145.41;100.00;58600.66;4993924;28;20116;-74
2023/04/30 03:35:40;;;;;;;7.35;4.35;;;;;;;-145.41;100.00;58600.66;4989731;28;20121;-73
2023/04/30 03:38:05;;;;;;;5.60;3.58;;;;;;;-145.41;100.00;58600.66;4979705;28;20414;-74
2023/04/30 03:40:30;;;;;;;8.52;4.60;;;;;;;-145.41;100.00;58600.66;4970675;28;20045;-76
2023/04/30 03:42:56;;;;;;;9.23;4.30;;;;;;;-145.41;100.00;58600.66;4979494;28;20042;-73
2023/04/30 03:45:21;;;;;;;8.10;4.15;;;;;;;-145.41;100.00;58600.66;4989673;28;20041;-74
2023/04/30 03:47:47;;;;;;;8.63;4.38;;;;;;;-145.41;100.00;58600.66;4972768;28;20474;-73
2023/04/30 03:50:13;;;;;;;11.45;4.25;;;;;;;-145.41;100.00;58600.66;4965667;28;20066;-73
2023/04/30 03:52:39;;;;;;;10.70;5.28;;;;;;;-145.41;100.00;58600.66;4968086;28;20072;-73
2023/04/30 03:55:06;;;;;;;12.07;5.03;;;;;;;-145.41;100.00;58600.66;4973984;28;20421;-73
2023/04/30 03:57:32;;;;;;;7.75;4.38;;;;;;;-145.41;100.00;58600.66;4989655;28;20514;-74
2023/04/30 03:59:58;;;;;;;10.40;4.82;;;;;;;-145.41;100.00;58600.66;4967874;28;20053;-74
2023/04/30 04:02:24;;;;;;;6.38;4.38;;;;;;;-145.41;100.00;58600.66;4983399;28;20042;-73
2023/04/30 04:04:50;;;;;;;8.80;4.35;;;;;;;-145.41;100.00;58600.66;4969547;28;20038;-73
2023/04/30 04:07:16;;;;;;;8.30;3.97;;;;;;;-145.41;100.00;58600.66;4987191;28;20129;-73
2023/04/30 04:09:41;;;;;;;7.90;4.30;;;;;;;-145.41;100.00;58600.66;4986063;28;20042;-73
2023/04/30 04:12:06;;;;;;;6.68;3.92;;;;;;;-145.41;100.00;58600.66;4984283;28;20493;-73
2023/04/30 04:14:32;;;;;;;7.80;4.63;;;;;;;-145.41;100.00;58600.66;4968189;28;20062;-74
2023/04/30 04:16:58;;;;;;;7.40;4.22;;;;;;;-145.41;100.00;58600.66;4983830;28;20053;-73
2023/04/30 04:19:25;;;;;;;7.55;4.10;;;;;;;-145.41;100.00;58600.66;4990107;23;20050;-73
2023/04/30 04:21:50;;;;;;;15.60;5.22;;;;;;;-145.41;100.00;58600.66;4983979;28;20679;-73
2023/04/30 04:24:16;;;;;;;10.35;5.03;;;;;;;-145.41;100.00;58600.66;4985161;28;20030;-73
2023/04/30 04:26:41;;;;;;;17.38;6.70;;;;;;;-145.41;100.00;58600.66;4988613;28;20072;-74
2023/04/30 04:29:09;;;;;;;11.93;5.75;;;;;;;-145.41;100.00;58600.66;4985114;28;20042;-72
2023/04/30 04:31:35;;;;;;;8.63;5.30;;;;;;;-145.41;100.00;58600.66;4976140;28;20108;-71
2023/04/30 04:34:03;;;;;;;20.70;4.80;;;;;;;-145.41;100.00;58600.66;4976384;28;20042;-73
2023/04/30 04:36:29;;;;;;;9.88;4.05;;;;;;;-145.41;100.00;58600.66;4976288;28;20053;-72
2023/04/30 04:38:56;;;;;;;8.77;4.40;;;;;;;-145.41;100.00;58600.66;4975867;28;20039;-72
2023/04/30 04:41:23;;;;;;;9.70;4.90;;;;;;;-145.41;100.00;58600.66;4972305;28;20567;-71
2023/04/30 04:43:49;;;;;;;7.25;3.70;;;;;;;-145.41;100.00;58600.66;4976068;28;20034;-71
2023/04/30 04:46:16;;;;;;;10.15;3.80;;;;;;;-145.41;100.00;58600.66;4976031;28;20031;-72
2023/04/30 04:48:42;;;;;;;7.78;4.20;;;;;;;-145.41;100.00;58600.66;4982439;28;20050;-72
2023/04/30 04:51:08;;;;;;;7.45;3.95;;;;;;;-145.41;100.00;58600.66;4975757;28;20520;-72
2023/04/30 04:53:35;;;;;;;8.65;4.63;;;;;;;-145.41;100.00;58600.66;4993367;28;20042;-71
2023/04/30 04:56:00;;;;;;;7.57;3.67;;;;;;;-145.41;100.00;58600.66;4993409;28;20038;-71
2023/04/30 04:58:26;;;;;;;9.23;4.00;;;;;;;-145.41;100.00;58600.66;4983249;28;20034;-71
2023/04/30 05:00:51;;;;;;;7.45;4.07;;;;;;;-145.41;100.00;58600.66;4992797;28;20101;-72
2023/04/30 05:03:19;;;;;;;8.85;4.45;;;;;;;-145.41;100.00;58600.66;4993276;28;20042;-71
2023/04/30 05:05:45;;;;;;;8.13;4.95;;;;;;;-145.41;100.00;58600.66;4975734;28;20038;-72
2023/04/30 05:08:10;;;;;;;10.77;4.63;;;;;;;-145.41;100.00;58600.66;4993131;28;20390;-72
2023/04/30 05:10:35;;;;;;;8.90;4.35;;;;;;;-145.41;100.00;58600.66;4992703;28;20092;-72
2023/04/30 05:13:01;;;;;;;9.00;4.43;;;;;;;-145.41;100.00;58600.66;4993100;28;20034;-72
2023/04/30 05:15:26;;;;;;;7.70;4.00;;;;;;;-145.41;100.00;58600.66;4992806;28;20046;-71
2023/04/30 05:17:51;;;;;;;7.70;4.45;;;;;;;-145.41;100.00;58600.66;4992907;28;20046;-72
2023/04/30 05:20:17;;;;;;;9.93;3.63;;;;;;;-145.41;100.00;58600.66;4985751;28;20035;-72
2023/04/30 05:22:42;;;;;;;10.73;3.70;;;;;;;-145.41;100.00;58600.66;4992728;28;20481;-72
2023/04/30 05:25:08;;;;;;;5.95;3.47;;;;;;;-145.41;100.00;58600.66;4992522;28;20136;-72
2023/04/30 05:27:33;;;;;;;9.57;3.65;;;;;;;-145.41;100.00;58600.66;4992788;28;20038;-71
2023/04/30 05:29:58;;;;;;;6.13;3.08;;;;;;;-145.41;100.00;58600.66;4992258;28;20477;-72
2023/04/30 05:32:24;;;;;;;9.43;3.90;;;;;;;-145.41;100.00;58600.66;4992572;28;20504;-71
2023/04/30 05:34:50;;;;;;;6.95;3.10;;;;;;;-145.41;100.00;58600.66;4992609;28;20032;-72
2023/04/30 05:37:18;;;;;;;9.18;3.30;;;;;;;-145.41;100.00;58600.66;4992445;28;20496;-72
2023/04/30 05:39:43;;;;;;;10.80;3.50;;;;;;;-145.41;100.00;58600.66;4991998;28;20061;-72
2023/04/30 05:42:08;;;;;;;11.98;4.20;;;;;;;-145.41;100.00;58600.66;4992393;28;20069;-71
2023/04/30 05:44:34;;;;;;;12.27;4.70;;;;;;;-145.41;100.00;58600.66;4992398;28;20034;-72
2023/04/30 05:47:00;;;;;;;10.50;3.97;;;;;;;-145.41;100.00;58600.66;4992347;28;20038;-72
2023/04/30 05:49:26;;;;;;;9.85;3.50;;;;;;;-145.41;100.00;58600.66;4992033;28;20026;-72
2023/04/30 05:51:51;;;;;;;7.93;3.00;;;;;;;-145.41;100.00;58600.66;4988553;28;20038;-72
2023/04/30 05:54:16;;;;;;;8.15;2.67;;;;;;;-145.41;100.00;58600.66;4992264;28;20036;-71
2023/04/30 05:56:42;;;;;;;6.57;3.22;;;;;;;-145.41;100.00;58600.66;4992377;28;20042;-71
2023/04/30 05:59:07;;;;;;;12.07;3.42;;;;;;;-145.41;100.00;58600.66;4991518;28;20030;-71
2023/04/30 06:01:33;;;;;;;6.95;2.47;;;;;;;-145.41;100.00;58600.66;4991908;28;20484;-71
2023/04/30 06:04:00;;;;;;;10.63;3.00;;;;;;;-145.41;100.00;58600.66;4992201;28;20046;-72
2023/04/30 06:06:26;;;;;;;7.20;3.15;;;;;;;-145.41;100.00;58600.66;4992124;28;20046;-72
2023/04/30 06:08:52;;;;;;;7.32;2.65;;;;;;;-145.41;100.00;58600.66;4991620;28;20535;-71
2023/04/30 06:11:17;;;;;;;5.72;2.55;;;;;;;-145.41;100.00;58600.66;4992038;28;20040;-72
2023/04/30 06:13:47;;;;;;;8.27;2.70;;;;;;;-145.41;100.00;58600.66;4992141;28;20515;-71
2023/04/30 06:16:13;;;;;;;5.30;2.28;;;;;;;-145.41;100.00;58600.66;4992059;28;20121;-71
2023/04/30 06:18:38;;;;;;;8.55;2.78;;;;;;;-145.41;100.00;58600.66;4977891;28;20026;-71
2023/04/30 06:21:03;;;;;;;7.75;2.58;;;;;;;-145.41;100.00;58600.66;4991484;28;20038;-71
2023/04/30 06:23:29;;;;;;;9.63;2.70;;;;;;;-145.41;100.00;58600.66;4983415;28;20037;-72
2023/04/30 06:25:54;;;;;;;5.03;2.38;;;;;;;-145.41;100.00;58600.66;4991803;28;20508;-72
2023/04/30 06:28:20;;;;;;;7.22;2.42;;;;;;;-145.41;100.00;58600.66;4991511;28;20038;-72
2023/04/30 06:30:45;;;;;;;7.07;2.38;;;;;;;-145.41;100.00;58600.66;4991423;28;20030;-71
2023/04/30 06:33:11;;;;;;;9.25;2.83;;;;;;;-145.41;100.00;58600.66;4991818;28;20117;-72
2023/04/30 06:35:36;;;;;;;9.32;2.85;;;;;;;-145.41;100.00;58600.66;4991792;28;20112;-71
2023/04/30 06:38:01;;;;;;;9.23;2.20;;;;;;;-145.41;100.00;58600.66;4991580;28;20123;-72
2023/04/30 06:40:27;;;;;;;8.95;3.13;;;;;;;-145.41;100.00;58600.66;4991324;28;20060;-72
2023/04/30 06:42:53;;;;;;;6.78;2.20;;;;;;;-145.41;100.00;58600.66;4991666;28;20053;-71
2023/04/30 06:45:19;;;;;;;5.25;1.80;;;;;;;-145.41;100.00;58600.66;4991601;28;20078;-72
2023/04/30 06:47:45;;;;;;;7.00;2.15;;;;;;;-145.41;100.00;58600.66;4991490;28;20072;-72
2023/04/30 06:50:11;;;;;;;6.95;1.90;;;;;;;-145.41;100.00;58600.66;4991057;28;20092;-72
2023/04/30 06:52:37;;;;;;;7.82;2.85;;;;;;;-145.41;100.00;58600.66;4991625;28;20038;-72
2023/04/30 06:55:02;;;;;;;7.68;2.42;;;;;;;-145.41;100.00;58600.66;4991626;28;20046;-72
2023/04/30 06:57:27;;;;;;;6.68;2.25;;;;;;;-145.41;100.00;58600.66;4991374;28;20054;-72
2023/04/30 06:59:53;;;;;;;6.68;2.40;;;;;;;-145.41;100.00;58600.66;4990833;28;20529;-71
2023/04/30 07:02:18;;;;;;;7.85;2.55;;;;;;;-145.41;100.00;58600.66;4991160;28;20042;-71
2023/04/30 07:04:43;;;;;;;6.50;2.13;;;;;;;-145.41;100.00;58600.66;4991384;28;20057;-72
2023/04/30 07:07:09;;;;;;;9.73;2.20;;;;;;;-145.41;100.00;58600.66;4990983;28;20034;-72
2023/04/30 07:09:35;;;;;;;7.90;2.17;;;;;;;-145.41;100.00;58600.66;4990421;28;20505;-72
2023/04/30 07:12:00;;;;;;;7.22;1.92;;;;;;;-145.41;100.00;58600.66;4991202;28;20038;-71
2023/04/30 07:14:26;;;;;;;6.78;2.03;;;;;;;-145.41;100.00;58600.66;4990948;28;20089;-72
2023/04/30 07:16:52;;;;;;;6.35;1.88;;;;;;;-145.41;100.00;58600.66;4988878;28;20038;-72
2023/04/30 07:19:17;;;;;;;5.85;2.17;;;;;;;-145.41;100.00;58600.66;4990800;28;20034;-72
2023/04/30 07:21:43;;;;;;;8.82;2.17;;;;;;;-145.41;100.00;58600.66;4995322;28;20117;-72
2023/04/30 07:24:08;;;;;;;9.55;2.45;;;;;;;-145.41;100.00;58600.66;4987529;28;20100;-72
2023/04/30 07:26:35;;;;;;;6.82;2.00;;;;;;;-145.41;100.00;58600.66;4992291;28;20038;-72
2023/04/30 07:29:00;;;;;;;6.82;2.05;;;;;;;-145.41;100.00;58600.66;4994842;28;20066;-72
2023/04/30 07:31:26;;;;;;;6.45;1.88;;;;;;;-145.41;100.00;58600.66;4993688;28;20547;-71
2023/04/30 07:33:51;;;;;;;7.18;1.83;;;;;;;-145.41;100.00;58600.66;4994761;28;20042;-72
2023/04/30 07:36:17;;;;;;;7.90;2.20;;;;;;;-145.41;100.00;58600.66;4994652;28;20081;-72
2023/04/30 07:38:42;;;;;;;6.70;2.03;;;;;;;-145.41;100.00;58600.66;4994480;28;20065;-72
2023/04/30 07:41:08;;;;;;;6.07;1.83;;;;;;;-145.41;100.00;58600.66;4994533;28;20416;-72
2023/04/30 07:43:34;;;;;;;5.25;1.90;;;;;;;-145.41;100.00;58600.66;4994613;28;20038;-72
2023/04/30 07:46:00;;;;;;;8.55;2.38;;;;;;;-145.41;100.00;58600.66;4994688;28;20500;-72
2023/04/30 07:48:25;;;;;;;8.02;2.10;;;;;;;-145.41;100.00;58600.66;4994410;28;20026;-72
2023/04/30 07:50:51;;;;;;;9.05;1.77;;;;;;;-145.41;100.00;58600.66;4994276;28;20070;-72
2023/04/30 07:53:16;;;;;;;10.52;3.22;;;;;;;-145.41;100.00;58600.66;4994511;28;20100;-72
2023/04/30 07:55:41;;;;;;;8.52;2.42;;;;;;;-145.41;100.00;58600.66;4994463;28;20034;-72
2023/04/30 07:58:07;;;;;;;9.15;3.15;;;;;;;-145.41;100.00;58600.66;4994264;28;20057;-72
2023/04/30 08:00:33;;;;;;;7.70;2.17;;;;;;;-145.41;100.00;58600.66;4994016;28;20062;-72
2023/04/30 08:02:59;;;;;;;5.65;2.30;;;;;;;-145.41;100.00;58600.66;4993523;28;20512;-72
2023/04/30 08:05:25;;;;;;;6.07;1.75;;;;;;;-145.41;100.00;58600.66;4993577;28;20125;-72
2023/04/30 08:07:51;;;;;;;9.07;2.40;;;;;;;-145.41;100.00;58600.66;4996507;28;20476;-72
2023/04/30 08:10:16;;;;;;;7.18;2.05;;;;;;;-145.41;100.00;58600.66;4993345;28;20149;-71
2023/04/30 08:12:42;;;;;;;8.95;2.47;;;;;;;-145.41;100.00;58600.66;4997245;28;20087;-71
2023/04/30 08:15:07;;;;;;;9.13;1.90;;;;;;;-145.41;100.00;58600.66;4993803;28;20113;-72
2023/04/30 08:17:33;;;;;;;7.03;2.10;;;;;;;-145.41;100.00;58600.66;4996378;28;20041;-72
2023/04/30 08:20:00;;;;;;;5.03;2.45;;;;;;;-145.41;100.00;58600.66;4993550;28;20113;-73
2023/04/30 08:22:25;;;;;;;7.10;1.98;;;;;;;-145.41;100.00;58600.66;4994001;28;20038;-73
2023/04/30 08:24:51;;;;;;;8.52;2.20;;;;;;;-145.41;100.00;58600.66;4993920;28;20117;-73
2023/04/30 08:27:16;;;;;;;9.88;2.90;;;;;;;-145.41;100.00;58600.66;4993816;28;20386;-74
2023/04/30 08:29:41;;;;;;;7.25;2.30;;;;;;;-145.41;100.00;58600.66;4986705;28;20049;-73
2023/04/30 08:32:08;;;;;;;7.05;2.22;;;;;;;-145.41;100.00;58600.66;4993588;28;20042;-74
2023/04/30 08:34:33;;;;;;;8.07;2.55;;;;;;;-145.41;100.00;58600.66;4989770;28;20444;-74
2023/04/30 08:36:59;;;;;;;6.82;2.33;;;;;;;-145.41;100.00;58600.66;4993806;28;20034;-74
2023/04/30 08:39:24;;;;;;;6.00;2.13;;;;;;;-145.41;100.00;58600.66;4992315;28;20050;-74
2023/04/30 08:41:58;;;;;;;9.25;2.10;;;;;;;-145.41;100.00;58600.66;4994327;28;20413;-74
2023/04/30 08:44:26;;;;;;;7.70;2.03;;;;;;;-145.41;100.00;58600.66;4992440;28;20058;-74
2023/04/30 08:46:53;;;;;;;8.48;2.92;;;;;;;-145.41;100.00;58600.66;4997459;28;20044;-73
2023/04/30 08:49:20;;;;;;;5.45;2.00;;;;;;;-145.41;100.00;58600.66;4993018;28;20424;-74
2023/04/30 08:51:46;;;;;;;5.47;1.70;;;;;;;-145.41;100.00;58600.66;4993469;28;20038;-74
2023/04/30 08:54:12;;;;;;;5.85;2.03;;;;;;;-145.41;100.00;58600.66;4993361;28;20161;-74
2023/04/30 08:56:39;;;;;;;8.23;2.55;;;;;;;-145.41;100.00;58600.66;4993509;28;20034;-74
2023/04/30 08:59:05;;;;;;;7.25;2.88;;;;;;;-145.41;100.00;58600.66;4973389;28;20038;-74
2023/04/30 09:01:30;;;;;;;6.82;2.03;;;;;;;-145.41;100.00;58600.66;4997357;28;20044;-74
2023/04/30 09:03:56;;;;;;;6.72;1.98;;;;;;;-145.41;100.00;58600.66;4989024;28;20093;-74
2023/04/30 09:06:22;;;;;;;6.22;1.70;;;;;;;-145.41;100.00;58600.66;4992482;28;20034;-74
2023/04/30 09:08:48;;;;;;;5.13;1.60;;;;;;;-145.41;100.00;58600.66;4997748;28;20044;-74
2023/04/30 09:11:27;;;;;;;6.88;2.38;;;;;;;-145.41;100.00;58600.66;4992978;28;20133;-74
2023/04/30 09:13:56;;;;;;;5.70;1.58;;;;;;;-145.41;100.00;58600.66;4990928;28;20038;-74
2023/04/30 09:16:22;;;;;;;6.45;2.15;;;;;;;-145.41;100.00;58600.66;4992912;28;20044;-74
2023/04/30 09:18:48;;;;;;;5.65;1.40;;;;;;;-145.41;100.00;58600.66;4992472;28;20113;-74
2023/04/30 09:21:13;;;;;;;5.88;1.60;;;;;;;-145.41;100.00;58600.66;4992673;28;20113;-74
2023/04/30 09:23:59;;;;;;;7.45;2.00;;;;;;;-145.41;100.00;58600.66;4992863;28;20556;-74
2023/04/30 09:26:33;;;;;;;8.30;1.95;;;;;;;-145.41;100.00;58600.66;4986076;28;20034;-74
2023/04/30 09:28:59;;;;;;;6.75;1.85;;;;;;;-145.41;100.00;58600.66;4991328;28;20041;-73
2023/04/30 09:31:27;;;;;;;6.47;2.08;;;;;;;-145.41;100.00;58600.66;4992603;28;20477;-74
2023/04/30 09:33:53;;;;;;;5.13;1.80;;;;;;;-145.41;100.00;58600.66;4992658;28;20494;-74
2023/04/30 09:36:19;;;;;;;8.63;1.92;;;;;;;-145.41;100.00;58600.66;4992580;28;20037;-74
2023/04/30 09:38:44;;;;;;;5.60;1.70;;;;;;;-145.41;100.00;58600.66;4992231;28;20026;-74
2023/04/30 09:41:29;;;;;;;8.27;2.13;;;;;;;-145.41;100.00;58600.66;4992239;28;20061;-74
2023/04/30 09:43:56;;;;;;;8.90;1.67;;;;;;;-145.41;100.00;58600.66;4990914;28;20038;-74
2023/04/30 09:46:30;;;;;;;5.15;1.88;;;;;;;-145.41;100.00;58600.66;4991787;28;20045;-74
2023/04/30 09:48:57;;;;;;;7.63;2.10;;;;;;;-145.41;100.00;58600.66;4988286;28;20073;-74
2023/04/30 09:51:23;;;;;;;5.45;1.80;;;;;;;-145.41;100.00;58600.66;4992351;28;20026;-74
2023/04/30 09:53:50;;;;;;;7.78;1.58;;;;;;;-145.41;100.00;58600.66;4992365;28;20404;-74
2023/04/30 09:56:20;;;;;;;4.30;1.40;;;;;;;-145.41;100.00;58600.66;4992389;28;20045;-74
2023/04/30 09:58:51;;;;;;;6.55;1.70;;;;;;;-145.41;100.00;58600.66;4991881;28;20030;-74
2023/04/30 10:01:17;;;;;;;5.88;1.80;;;;;;;-145.41;100.00;58600.66;4992240;28;20046;-74
2023/04/30 10:03:43;;;;;;;5.97;1.70;;;;;;;-145.41;100.00;58600.66;4992174;28;20121;-74
2023/04/30 10:06:12;;;;;;;6.20;2.03;;;;;;;-145.41;100.00;58600.66;4992145;28;20046;-74
2023/04/30 10:08:42;;;;;;;8.70;2.03;;;;;;;-145.41;100.00;58600.66;4991914;28;20092;-74
2023/04/30 10:11:08;;;;;;;6.63;1.95;;;;;;;-145.41;100.00;58600.66;4988183;28;20034;-74
2023/04/30 10:13:41;;;;;;;5.43;1.63;;;;;;;-145.41;100.00;58600.66;4991978;28;20049;-74
2023/04/30 10:16:17;;;;;;;6.05;1.90;;;;;;;-145.41;100.00;58600.66;4991728;28;20038;-73
2023/04/30 10:18:45;;;;;;;5.75;1.95;;;;;;;-145.41;100.00;58600.66;4991396;28;20056;-74
2023/04/30 10:21:13;;;;;;;7.43;1.98;;;;;;;-145.41;100.00;58600.66;4990016;28;20094;-74
2023/04/30 10:23:42;;;;;;;6.25;2.03;;;;;;;-145.41;100.00;58600.66;4987709;28;20068;-74
2023/04/30 10:26:13;;;;;;;9.98;1.98;;;;;;;-145.41;100.00;58600.66;4983169;23;20409;-76
2023/04/30 10:28:39;;;;;;;6.90;1.77;;;;;;;-145.41;100.00;58600.66;4986698;28;20110;-77
2023/04/30 10:31:07;;;;;;;5.65;1.90;;;;;;;-145.41;100.00;58600.66;4981276;28;20129;-76
2023/04/30 10:33:50;;;;;;;4.32;1.50;;;;;;;-145.41;100.00;58600.66;4982101;28;20084;-77
2023/04/30 10:36:32;;;;;;;6.63;1.98;;;;;;;-145.41;100.00;58600.66;4971188;28;20054;-76
2023/04/30 10:38:59;;;;;;;6.10;1.65;;;;;;;-145.41;100.00;58600.66;4968854;28;20050;-76
2023/04/30 10:41:26;;;;;;;6.43;1.85;;;;;;;-145.41;100.00;58600.66;4964726;28;20041;-76
2023/04/30 10:43:56;;;;;;;4.88;1.88;;;;;;;-145.41;100.00;58600.66;4961319;28;20529;-76
2023/04/30 10:46:22;;;;;;;5.65;1.75;;;;;;;-145.41;100.00;58600.66;4960856;28;20094;-76
2023/04/30 10:48:48;;;;;;;5.63;1.65;;;;;;;-145.41;100.00;58600.66;4967490;28;20105;-77
2023/04/30 10:51:14;;;;;;;5.03;1.60;;;;;;;-145.41;100.00;58600.66;4961273;28;20502;-77
2023/04/30 10:53:41;;;;;;;8.13;2.05;;;;;;;-145.41;100.00;58600.66;4964014;28;20382;-76
2023/04/30 10:56:10;;;;;;;5.93;1.60;;;;;;;-145.41;100.00;58600.66;4962589;28;20039;-77
2023/04/30 10:58:37;;;;;;;6.65;1.58;;;;;;;-145.41;100.00;58600.66;4952886;28;20394;-76
2023/04/30 11:01:05;;;;;;;4.95;1.67;;;;;;;-145.41;100.00;58600.66;4966497;28;20133;-77
2023/04/30 11:03:33;;;;;;;8.05;1.60;;;;;;;-145.41;100.00;58600.66;4966717;28;20066;-76
2023/04/30 11:06:03;;;;;;;3.88;1.60;;;;;;;-145.41;100.00;58600.66;4965713;28;20067;-77
2023/04/30 11:08:32;;;;;;;8.77;1.70;;;;;;;-145.41;100.00;58600.66;4966323;28;20061;-76